Emden — 3ERP5 — position and weather

sailwx.info

Track history (hours):
 
Tides and Currents Weather Stations Pressure Air Temp Water Temp Dewpoint Dewpoint Depression Visibility Wind Speed Wind Dir Waves Ship Positions

Emden

Last reported at 2015-Sep-03 19:33 UTC. Time now 2015-Sep-04 07:55 UTC.
Position N 43°45' W 005°44'.

Length 177 m; draft 7.6 m.

Type: Ship. MMSI: 355051000.

Date/timePositionNaut miles runAvg speedWind from/ knotsBaromVisibWave heightAir tempDewpointWater temp
2015-Sep-03 19:33N 43°45' W 005°44'1514.7
2015-Sep-03 18:32N 43°43' W 005°24'1414.6
2015-Sep-03 17:33N 43°41' W 005°04'  
2015-Sep-01 02:33N 51°47' W 005°57'1817.7
2015-Sep-01 01:33N 52°05' W 005°54'1716.7
2015-Sep-01 00:33N 52°22' W 005°53'1515.1
2015-Aug-31 23:33N 52°37' W 005°51'2 0.1
2015-Aug-30 05:17N 52°39' W 005°50'1014.3
2015-Aug-30 04:33N 52°29' W 005°48'1313.1
2015-Aug-30 03:33N 52°15' W 005°48'1211.8
2015-Aug-30 02:33N 52°04' W 005°46'1111.0
2015-Aug-30 01:33N 51°53' W 005°47'5513.3
2015-Aug-29 21:27N 50°58' W 005°52'1213.7
2015-Aug-29 20:33N 50°46' W 005°52'1313.4
2015-Aug-29 19:33N 50°33' W 005°53'1413.6
2015-Aug-29 18:33N 50°19' W 005°52'1413.2
2015-Aug-29 17:30N 50°05' W 005°52'17812.8
2015-Aug-29 03:33N 50°19' W 001°15'1817.0
2015-Aug-29 02:30N 50°24' W 000°48'2116.9
2015-Aug-29 01:15N 50°30' W 000°16'1116.0
2015-Aug-29 00:33N 50°33' E 000°01'1515.2
2015-Aug-28 23:33N 50°37' E 000°24'1413.8
2015-Aug-28 22:33N 50°43' E 000°44'1313.0
2015-Aug-28 21:33N 50°51' E 001°01'1313.1
2015-Aug-28 20:33N 50°59' E 001°17'1514.7
2015-Aug-28 19:34N 51°08' E 001°35'1414.3
2015-Aug-28 18:34N 51°22' E 001°35'1312.7
2015-Aug-28 17:34N 51°29' E 001°18'1212.1
2015-Aug-28 16:34N 51°29' E 000°59'9 9.3
2015-Aug-28 15:33N 51°26' E 000°44'0 0.0
2015-Aug-28 14:32N 51°26' E 000°44'0 0.0
2015-Aug-28 13:31N 51°26' E 000°44'0 0.0
2015-Aug-28 12:31N 51°26' E 000°44'0 0.0
2015-Aug-28 11:31N 51°26' E 000°44'0 0.0
2015-Aug-28 10:31N 51°26' E 000°44'0 0.0
2015-Aug-28 09:31N 51°26' E 000°44'0 0.0
2015-Aug-28 08:31N 51°26' E 000°44'0 0.0
2015-Aug-28 07:31N 51°26' E 000°44'0 0.0
2015-Aug-28 06:31N 51°26' E 000°44'0 0.0
2015-Aug-28 05:31N 51°26' E 000°44'0 0.0
2015-Aug-28 04:31N 51°26' E 000°44'0 0.0
2015-Aug-28 03:31N 51°26' E 000°44'0 0.0
2015-Aug-28 02:31N 51°26' E 000°44'0 0.0
2015-Aug-28 01:31N 51°26' E 000°44'0 0.0
2015-Aug-28 00:28N 51°26' E 000°44'0 0.0
2015-Aug-27 23:31N 51°26' E 000°44'0 0.0
2015-Aug-27 22:31N 51°26' E 000°44'0 0.0
2015-Aug-27 21:31N 51°26' E 000°44'6 6.1
2015-Aug-27 20:33N 51°29' E 000°53'1515.2
2015-Aug-27 19:33N 51°29' E 001°17'9 9.1
2015-Aug-27 18:34N 51°26' E 001°31'8 8.0
2015-Aug-27 17:34N 51°31' E 001°42'1313.0
2015-Aug-27 16:34N 51°36' E 002°01'1514.3
2015-Aug-27 15:32N 51°45' E 002°20'7813.1
2015-Aug-27 09:33N 52°45' E 003°41'1414.2
2015-Aug-27 08:34N 52°56' E 003°56'2113.9
2015-Aug-27 07:05N 53°09' E 004°22'2113.6
2015-Aug-27 05:33N 53°28' E 004°37'1212.2
2015-Aug-27 04:33N 53°32' E 004°56'1212.3
2015-Aug-27 03:33N 53°37' E 005°15'1212.3
2015-Aug-27 02:33N 53°40' E 005°35'1312.9
2015-Aug-27 01:33N 53°44' E 005°56'1313.2
2015-Aug-27 00:33N 53°39' E 006°17'1212.2
2015-Aug-26 23:33N 53°35' E 006°37'1616.0
2015-Aug-26 22:33N 53°25' E 006°57'9 9.2
2015-Aug-26 21:33N 53°20' E 007°10'0 0.4
2015-Aug-26 20:33N 53°20' E 007°11'0 0.0
2015-Aug-26 19:33N 53°20' E 007°11'0 0.0
2015-Aug-26 18:33N 53°20' E 007°11'0 0.0
2015-Aug-26 17:30N 53°20' E 007°11'0 0.0
2015-Aug-26 16:33N 53°20' E 007°11'0 0.0
2015-Aug-26 15:33N 53°20' E 007°11'0 0.0
2015-Aug-26 14:33N 53°20' E 007°11'0 0.0
2015-Aug-26 13:33N 53°20' E 007°11'0 0.0
2015-Aug-26 12:33N 53°20' E 007°11'0 0.0
2015-Aug-26 11:33N 53°20' E 007°11'0 0.0
2015-Aug-26 10:33N 53°20' E 007°11'0 0.0
2015-Aug-26 09:30N 53°20' E 007°11'0 0.0
2015-Aug-26 08:33N 53°20' E 007°11'0 0.0
2015-Aug-26 07:33N 53°20' E 007°11'0 0.0
2015-Aug-26 06:30N 53°20' E 007°11'0 0.0
2015-Aug-26 05:30N 53°20' E 007°11'0 0.0
2015-Aug-26 04:33N 53°20' E 007°11'0 0.0
2015-Aug-26 03:33N 53°20' E 007°11'0 0.0
2015-Aug-26 02:30N 53°20' E 007°11'0 0.0
2015-Aug-26 01:30N 53°20' E 007°11'0 0.0
2015-Aug-26 00:33N 53°20' E 007°11'0 0.0
2015-Aug-25 23:33N 53°20' E 007°11'0 0.0
2015-Aug-25 22:33N 53°20' E 007°11'0 0.0
2015-Aug-25 21:30N 53°20' E 007°11'0 0.0
2015-Aug-25 20:33N 53°20' E 007°11'0 0.0
2015-Aug-25 19:30N 53°20' E 007°11'0 0.0
2015-Aug-25 18:33N 53°20' E 007°11'0 0.0
2015-Aug-25 17:33N 53°20' E 007°11'0 0.0
2015-Aug-25 16:30N 53°20' E 007°11'0 0.0
2015-Aug-25 15:33N 53°20' E 007°11'0 0.4
2015-Aug-25 14:34N 53°20' E 007°11'1 0.9
2015-Aug-25 13:33N 53°21' E 007°12'0 0.1
2015-Aug-25 12:32N 53°21' E 007°12'0 0.0
2015-Aug-25 11:29N 53°21' E 007°12'0 0.0
2015-Aug-25 10:32N 53°21' E 007°12'0 0.0
2015-Aug-25 09:32N 53°21' E 007°12'0 0.0
2015-Aug-25 08:32N 53°21' E 007°12'0 0.0
2015-Aug-25 07:32N 53°21' E 007°12'0 0.0
2015-Aug-25 06:32N 53°21' E 007°12'0 0.0
2015-Aug-25 05:32N 53°21' E 007°12'0 0.0
2015-Aug-25 04:32N 53°21' E 007°12'0 0.0
2015-Aug-25 03:32N 53°21' E 007°12'0 0.0
2015-Aug-25 02:32N 53°21' E 007°12'0 0.0
2015-Aug-25 01:32N 53°21' E 007°12'0 0.0
2015-Aug-25 00:29N 53°21' E 007°12'0 0.0
2015-Aug-24 23:32N 53°21' E 007°12'0 0.0
2015-Aug-24 22:32N 53°21' E 007°12'0 0.0
2015-Aug-24 21:32N 53°21' E 007°12'0 0.0
2015-Aug-24 20:32N 53°21' E 007°12'  
Track history (hours):
 
Tides and Currents Weather Stations Pressure Air Temp Water Temp Dewpoint Dewpoint Depression Visibility Wind Speed Wind Dir Waves Ship Positions

Emden

Last reported at 2015-Sep-03 19:33 UTC. Time now 2015-Sep-04 07:55 UTC.
Position N 43°45' W 005°44'.

Length 177 m; draft 7.6 m.

Type: Ship. MMSI: 355051000.

Date/timePositionNaut miles runAvg speedWind from/ knotsBaromVisibWave heightAir tempDewpointWater temp
2015-Sep-03 19:33N 43°45' W 005°44'1514.7
2015-Sep-03 18:32N 43°43' W 005°24'1414.6
2015-Sep-03 17:33N 43°41' W 005°04'  
2015-Sep-01 02:33N 51°47' W 005°57'1817.7
2015-Sep-01 01:33N 52°05' W 005°54'1716.7
2015-Sep-01 00:33N 52°22' W 005°53'1515.1
2015-Aug-31 23:33N 52°37' W 005°51'2 0.1
2015-Aug-30 05:17N 52°39' W 005°50'1014.3
2015-Aug-30 04:33N 52°29' W 005°48'1313.1
2015-Aug-30 03:33N 52°15' W 005°48'1211.8
2015-Aug-30 02:33N 52°04' W 005°46'1111.0
2015-Aug-30 01:33N 51°53' W 005°47'5513.3
2015-Aug-29 21:27N 50°58' W 005°52'1213.7
2015-Aug-29 20:33N 50°46' W 005°52'1313.4
2015-Aug-29 19:33N 50°33' W 005°53'1413.6
2015-Aug-29 18:33N 50°19' W 005°52'1413.2
2015-Aug-29 17:30N 50°05' W 005°52'17812.8
2015-Aug-29 03:33N 50°19' W 001°15'1817.0
2015-Aug-29 02:30N 50°24' W 000°48'2116.9
2015-Aug-29 01:15N 50°30' W 000°16'1116.0
2015-Aug-29 00:33N 50°33' E 000°01'1515.2
2015-Aug-28 23:33N 50°37' E 000°24'1413.8
2015-Aug-28 22:33N 50°43' E 000°44'1313.0
2015-Aug-28 21:33N 50°51' E 001°01'1313.1
2015-Aug-28 20:33N 50°59' E 001°17'1514.7
2015-Aug-28 19:34N 51°08' E 001°35'1414.3
2015-Aug-28 18:34N 51°22' E 001°35'1312.7
2015-Aug-28 17:34N 51°29' E 001°18'1212.1
2015-Aug-28 16:34N 51°29' E 000°59'9 9.3
2015-Aug-28 15:33N 51°26' E 000°44'0 0.0
2015-Aug-28 14:32N 51°26' E 000°44'0 0.0
2015-Aug-28 13:31N 51°26' E 000°44'0 0.0
2015-Aug-28 12:31N 51°26' E 000°44'0 0.0
2015-Aug-28 11:31N 51°26' E 000°44'0 0.0
2015-Aug-28 10:31N 51°26' E 000°44'0 0.0
2015-Aug-28 09:31N 51°26' E 000°44'0 0.0
2015-Aug-28 08:31N 51°26' E 000°44'0 0.0
2015-Aug-28 07:31N 51°26' E 000°44'0 0.0
2015-Aug-28 06:31N 51°26' E 000°44'0 0.0
2015-Aug-28 05:31N 51°26' E 000°44'0 0.0
2015-Aug-28 04:31N 51°26' E 000°44'0 0.0
2015-Aug-28 03:31N 51°26' E 000°44'0 0.0
2015-Aug-28 02:31N 51°26' E 000°44'0 0.0
2015-Aug-28 01:31N 51°26' E 000°44'0 0.0
2015-Aug-28 00:28N 51°26' E 000°44'0 0.0
2015-Aug-27 23:31N 51°26' E 000°44'0 0.0
2015-Aug-27 22:31N 51°26' E 000°44'0 0.0
2015-Aug-27 21:31N 51°26' E 000°44'6 6.1
2015-Aug-27 20:33N 51°29' E 000°53'1515.2
2015-Aug-27 19:33N 51°29' E 001°17'9 9.1
2015-Aug-27 18:34N 51°26' E 001°31'8 8.0
2015-Aug-27 17:34N 51°31' E 001°42'1313.0
2015-Aug-27 16:34N 51°36' E 002°01'1514.3
2015-Aug-27 15:32N 51°45' E 002°20'7813.1
2015-Aug-27 09:33N 52°45' E 003°41'1414.2
2015-Aug-27 08:34N 52°56' E 003°56'2113.9
2015-Aug-27 07:05N 53°09' E 004°22'2113.6
2015-Aug-27 05:33N 53°28' E 004°37'1212.2
2015-Aug-27 04:33N 53°32' E 004°56'1212.3
2015-Aug-27 03:33N 53°37' E 005°15'1212.3
2015-Aug-27 02:33N 53°40' E 005°35'1312.9
2015-Aug-27 01:33N 53°44' E 005°56'1313.2
2015-Aug-27 00:33N 53°39' E 006°17'1212.2
2015-Aug-26 23:33N 53°35' E 006°37'1616.0
2015-Aug-26 22:33N 53°25' E 006°57'9 9.2
2015-Aug-26 21:33N 53°20' E 007°10'0 0.4
2015-Aug-26 20:33N 53°20' E 007°11'0 0.0
2015-Aug-26 19:33N 53°20' E 007°11'0 0.0
2015-Aug-26 18:33N 53°20' E 007°11'0 0.0
2015-Aug-26 17:30N 53°20' E 007°11'0 0.0
2015-Aug-26 16:33N 53°20' E 007°11'0 0.0
2015-Aug-26 15:33N 53°20' E 007°11'0 0.0
2015-Aug-26 14:33N 53°20' E 007°11'0 0.0
2015-Aug-26 13:33N 53°20' E 007°11'0 0.0
2015-Aug-26 12:33N 53°20' E 007°11'0 0.0
2015-Aug-26 11:33N 53°20' E 007°11'0 0.0
2015-Aug-26 10:33N 53°20' E 007°11'0 0.0
2015-Aug-26 09:30N 53°20' E 007°11'0 0.0
2015-Aug-26 08:33N 53°20' E 007°11'0 0.0
2015-Aug-26 07:33N 53°20' E 007°11'0 0.0
2015-Aug-26 06:30N 53°20' E 007°11'0 0.0
2015-Aug-26 05:30N 53°20' E 007°11'0 0.0
2015-Aug-26 04:33N 53°20' E 007°11'0 0.0
2015-Aug-26 03:33N 53°20' E 007°11'0 0.0
2015-Aug-26 02:30N 53°20' E 007°11'0 0.0
2015-Aug-26 01:30N 53°20' E 007°11'0 0.0
2015-Aug-26 00:33N 53°20' E 007°11'0 0.0
2015-Aug-25 23:33N 53°20' E 007°11'0 0.0
2015-Aug-25 22:33N 53°20' E 007°11'0 0.0
2015-Aug-25 21:30N 53°20' E 007°11'0 0.0
2015-Aug-25 20:33N 53°20' E 007°11'0 0.0
2015-Aug-25 19:30N 53°20' E 007°11'0 0.0
2015-Aug-25 18:33N 53°20' E 007°11'0 0.0
2015-Aug-25 17:33N 53°20' E 007°11'0 0.0
2015-Aug-25 16:30N 53°20' E 007°11'0 0.0
2015-Aug-25 15:33N 53°20' E 007°11'0 0.4
2015-Aug-25 14:34N 53°20' E 007°11'1 0.9
2015-Aug-25 13:33N 53°21' E 007°12'0 0.1
2015-Aug-25 12:32N 53°21' E 007°12'0 0.0
2015-Aug-25 11:29N 53°21' E 007°12'0 0.0
2015-Aug-25 10:32N 53°21' E 007°12'0 0.0
2015-Aug-25 09:32N 53°21' E 007°12'0 0.0
2015-Aug-25 08:32N 53°21' E 007°12'0 0.0
2015-Aug-25 07:32N 53°21' E 007°12'0 0.0
2015-Aug-25 06:32N 53°21' E 007°12'0 0.0
2015-Aug-25 05:32N 53°21' E 007°12'0 0.0
2015-Aug-25 04:32N 53°21' E 007°12'0 0.0
2015-Aug-25 03:32N 53°21' E 007°12'0 0.0
2015-Aug-25 02:32N 53°21' E 007°12'0 0.0
2015-Aug-25 01:32N 53°21' E 007°12'0 0.0
2015-Aug-25 00:29N 53°21' E 007°12'0 0.0
2015-Aug-24 23:32N 53°21' E 007°12'0 0.0
2015-Aug-24 22:32N 53°21' E 007°12'0 0.0
2015-Aug-24 21:32N 53°21' E 007°12'0 0.0
2015-Aug-24 20:32N 53°21' E 007°12'  

Dump ship's entire track history